createdAt,value
2023-04-25T00:00:57.853Z,45.34
2023-04-25T00:03:28.867Z,45.37
2023-04-25T00:06:03.105Z,45.41
2023-04-25T00:08:33.900Z,45.38
2023-04-25T00:11:04.896Z,45.48
2023-04-25T00:13:35.758Z,45.46
2023-04-25T00:16:07.788Z,45.54
2023-04-25T00:18:38.726Z,45.59
2023-04-25T00:21:09.541Z,45.65
2023-04-25T00:23:40.716Z,45.61
2023-04-25T00:26:11.701Z,45.64
2023-04-25T00:28:42.902Z,45.70
2023-04-25T00:31:13.808Z,45.77
2023-04-25T00:33:44.757Z,45.80
2023-04-25T00:36:15.981Z,45.89
2023-04-25T00:38:46.836Z,46.08
2023-04-25T00:41:17.728Z,46.07
2023-04-25T00:43:48.941Z,46.26
2023-04-25T00:46:20.180Z,46.37
2023-04-25T00:48:51.055Z,46.41
2023-04-25T00:51:23.464Z,46.53
2023-04-25T00:53:54.309Z,46.56
2023-04-25T00:56:25.211Z,46.61
2023-04-25T00:58:57.653Z,46.71
2023-04-25T01:01:29.322Z,46.73
2023-04-25T01:04:00.301Z,46.88
2023-04-25T01:06:32.097Z,47.08
2023-04-25T01:09:02.869Z,47.20
2023-04-25T01:11:33.820Z,47.40
2023-04-25T01:14:04.713Z,47.43
2023-04-25T01:16:35.598Z,47.42
2023-04-25T01:19:08.128Z,47.74
2023-04-25T01:21:39.117Z,47.75
2023-04-25T01:24:10.324Z,47.93
2023-04-25T01:26:41.340Z,47.96
2023-04-25T01:29:12.247Z,48.01
2023-04-25T01:31:43.128Z,48.15
2023-04-25T01:34:13.919Z,48.26
2023-04-25T01:36:44.968Z,48.15
2023-04-25T01:39:15.887Z,48.34
2023-04-25T01:41:46.735Z,48.40
2023-04-25T01:44:17.720Z,48.58
2023-04-25T01:46:48.611Z,48.61
2023-04-25T01:49:19.603Z,48.76
2023-04-25T01:51:50.577Z,48.83
2023-04-25T01:54:21.434Z,49.02
2023-04-25T01:56:54.144Z,49.20
2023-04-25T01:59:26.065Z,49.35
2023-04-25T02:01:57.680Z,49.59
2023-04-25T02:04:29.513Z,49.72
2023-04-25T02:07:01.181Z,49.77
2023-04-25T02:09:32.633Z,49.92
2023-04-25T02:12:04.239Z,50.08
2023-04-25T02:14:35.763Z,50.27
2023-04-25T02:17:07.526Z,50.32
2023-04-25T02:19:39.205Z,50.46
2023-04-25T02:22:11.641Z,50.48
2023-04-25T02:24:43.133Z,50.48
2023-04-25T02:27:14.516Z,50.59
2023-04-25T02:29:46.207Z,50.70
2023-04-25T02:32:17.706Z,50.74
2023-04-25T02:34:49.183Z,50.94
2023-04-25T02:37:20.720Z,50.87
2023-04-25T02:39:52.584Z,50.94
2023-04-25T02:42:24.266Z,50.88
2023-04-25T02:44:56.042Z,50.98
2023-04-25T02:47:27.507Z,51.04
2023-04-25T02:49:58.880Z,50.97
2023-04-25T02:52:30.405Z,51.14
2023-04-25T02:55:02.056Z,51.04
2023-04-25T02:57:33.527Z,51.04
2023-04-25T03:00:07.010Z,51.09
2023-04-25T03:02:38.478Z,51.11
2023-04-25T03:05:10.428Z,51.13
2023-04-25T03:07:42.072Z,51.18
2023-04-25T03:10:13.676Z,51.32
2023-04-25T03:12:44.837Z,51.24
2023-04-25T03:15:17.881Z,51.28
2023-04-25T03:17:49.461Z,51.25
2023-04-25T03:20:21.120Z,51.30
2023-04-25T03:22:52.695Z,51.32
2023-04-25T03:25:24.194Z,51.35
2023-04-25T03:27:56.645Z,51.42
2023-04-25T03:30:28.240Z,51.42
2023-04-25T03:32:59.808Z,51.42
2023-04-25T03:35:31.367Z,51.40
2023-04-25T03:38:02.665Z,51.61
2023-04-25T03:40:34.176Z,51.60
2023-04-25T03:43:05.960Z,51.68
2023-04-25T03:45:37.748Z,51.83
2023-04-25T03:48:09.375Z,51.73
2023-04-25T03:50:40.923Z,51.86
2023-04-25T03:53:12.357Z,51.97
2023-04-25T03:55:43.901Z,51.95
2023-04-25T03:58:15.404Z,52.06
2023-04-25T04:00:47.069Z,52.05
2023-04-25T04:03:18.718Z,52.29
2023-04-25T04:05:51.137Z,52.39
2023-04-25T04:08:22.815Z,52.36
2023-04-25T04:10:54.619Z,52.43
2023-04-25T04:13:28.439Z,52.53
2023-04-25T04:16:00.065Z,52.50
2023-04-25T04:18:31.433Z,52.68
2023-04-25T04:21:03.012Z,52.77
2023-04-25T04:23:34.855Z,52.79
2023-04-25T04:26:06.513Z,52.94
2023-04-25T04:28:39.146Z,53.01
2023-04-25T04:31:10.540Z,53.08
2023-04-25T04:33:41.967Z,53.18
2023-04-25T04:36:14.169Z,53.29
2023-04-25T04:38:45.732Z,53.43
2023-04-25T04:41:17.369Z,53.44
2023-04-25T04:43:48.872Z,53.51
2023-04-25T04:46:21.295Z,53.62
2023-04-25T04:48:54.200Z,53.65
2023-04-25T04:51:25.613Z,53.64
2023-04-25T04:53:59.620Z,53.83
2023-04-25T04:56:32.195Z,53.83
2023-04-25T04:59:04.284Z,53.72
2023-04-25T05:01:36.928Z,53.78
2023-04-25T05:04:08.732Z,53.98
2023-04-25T05:06:40.324Z,54.01
2023-04-25T05:09:11.696Z,54.01
2023-04-25T05:11:43.279Z,54.19
2023-04-25T05:14:14.731Z,54.24
2023-04-25T05:16:46.571Z,54.13
2023-04-25T05:19:18.001Z,54.32
2023-04-25T05:21:49.480Z,54.39
2023-04-25T05:24:21.194Z,54.39
2023-04-25T05:26:52.768Z,54.41
2023-04-25T05:29:24.330Z,54.53
2023-04-25T05:31:55.641Z,54.69
2023-04-25T05:34:27.101Z,54.79
2023-04-25T05:36:58.485Z,54.89
2023-04-25T05:39:29.963Z,54.97
2023-04-25T05:42:02.754Z,55.08
2023-04-25T05:44:34.112Z,55.15
2023-04-25T05:47:06.100Z,55.23
2023-04-25T05:49:37.624Z,55.30
2023-04-25T05:52:09.481Z,55.33
2023-04-25T05:54:40.972Z,55.33
2023-04-25T05:57:17.294Z,55.42
2023-04-25T05:59:48.661Z,55.53
2023-04-25T06:02:20.578Z,55.52
2023-04-25T06:04:52.775Z,55.78
2023-04-25T06:07:24.621Z,55.80
2023-04-25T06:09:55.908Z,55.70
2023-04-25T06:12:27.377Z,55.89
2023-04-25T06:14:58.999Z,55.96
2023-04-25T06:17:30.714Z,56.03
2023-04-25T06:20:04.563Z,56.14
2023-04-25T06:22:37.141Z,56.35
2023-04-25T06:25:09.328Z,56.32
2023-04-25T06:27:40.835Z,56.47
2023-04-25T06:30:13.264Z,56.39
2023-04-25T06:32:44.943Z,56.61
2023-04-25T06:35:16.352Z,56.64
2023-04-25T06:37:52.611Z,56.80
2023-04-25T06:40:24.313Z,56.89
2023-04-25T06:42:55.988Z,56.89
2023-04-25T06:45:30.442Z,56.75
2023-04-25T06:48:03.653Z,56.88
2023-04-25T06:50:35.813Z,56.94
2023-04-25T06:53:07.510Z,57.03
2023-04-25T06:55:39.124Z,57.13
2023-04-25T06:58:10.778Z,57.18
2023-04-25T07:00:42.033Z,57.21
2023-04-25T07:03:13.500Z,57.24
2023-04-25T07:05:46.978Z,57.26
2023-04-25T07:08:18.678Z,57.36
2023-04-25T07:10:50.272Z,57.49
2023-04-25T07:13:21.494Z,57.60
2023-04-25T07:15:52.513Z,57.69
2023-04-25T07:18:23.676Z,57.73
2023-04-25T07:20:55.288Z,57.82
2023-04-25T07:23:26.808Z,57.94
2023-04-25T07:25:58.122Z,58.03
2023-04-25T07:28:29.441Z,58.10
2023-04-25T07:31:00.754Z,58.00
2023-04-25T07:33:32.429Z,58.13
2023-04-25T07:36:04.193Z,58.30
2023-04-25T07:38:35.740Z,58.36
2023-04-25T07:41:07.399Z,58.36
2023-04-25T07:43:38.955Z,58.37
2023-04-25T07:46:10.655Z,58.46
2023-04-25T07:48:42.306Z,58.44
2023-04-25T07:51:13.610Z,58.54
2023-04-25T07:53:44.143Z,58.51
2023-04-25T07:56:15.705Z,58.60
2023-04-25T07:58:47.393Z,58.66
2023-04-25T08:01:20.117Z,58.97
2023-04-25T08:03:51.584Z,58.95
2023-04-25T08:06:23.281Z,58.86
2023-04-25T08:08:54.937Z,58.88
2023-04-25T08:11:27.149Z,59.07
2023-04-25T08:13:58.661Z,59.08
2023-04-25T08:16:29.939Z,59.15
2023-04-25T08:19:01.464Z,59.26
2023-04-25T08:21:33.953Z,59.21
2023-04-25T08:24:05.933Z,59.22
2023-04-25T08:26:38.490Z,59.36
2023-04-25T08:29:09.914Z,59.32
2023-04-25T08:31:41.274Z,59.33
2023-04-25T08:34:12.771Z,59.34
2023-04-25T08:36:44.343Z,59.24
2023-04-25T08:39:15.961Z,59.31
2023-04-25T08:41:47.280Z,59.38
2023-04-25T08:44:18.500Z,59.41
2023-04-25T08:46:51.778Z,59.55
2023-04-25T08:49:23.346Z,59.67
2023-04-25T08:51:54.751Z,59.80
2023-04-25T08:54:35.137Z,59.79
2023-04-25T08:57:08.717Z,59.80
2023-04-25T08:59:40.230Z,59.67
2023-04-25T09:02:15.794Z,59.65
2023-04-25T09:04:47.826Z,59.71
2023-04-25T09:07:22.363Z,59.47
2023-04-25T09:09:53.763Z,59.51
2023-04-25T09:12:25.076Z,59.72
2023-04-25T09:15:07.640Z,59.57
2023-04-25T09:17:41.603Z,59.73
2023-04-25T09:20:14.645Z,59.69
2023-04-25T09:22:46.181Z,59.56
2023-04-25T09:25:17.537Z,59.69
2023-04-25T09:27:57.102Z,59.82
2023-04-25T09:30:32.871Z,59.87
2023-04-25T09:33:08.962Z,59.79
2023-04-25T09:35:40.667Z,59.71
2023-04-25T09:38:13.939Z,59.53
2023-04-25T09:40:46.413Z,59.52
2023-04-25T09:43:25.794Z,59.54
2023-04-25T09:46:12.319Z,59.59
2023-04-25T09:48:57.572Z,59.50
2023-04-25T09:51:29.813Z,59.09
2023-04-25T09:54:13.750Z,58.89
2023-04-25T09:56:45.030Z,59.08
2023-04-25T09:59:16.652Z,59.07
2023-04-25T10:01:47.975Z,59.02
2023-04-25T10:04:21.637Z,59.18
2023-04-25T10:06:53.509Z,59.12
2023-04-25T10:09:25.742Z,59.05
2023-04-25T10:11:57.745Z,59.14
2023-04-25T10:14:29.837Z,59.01
2023-04-25T10:17:01.180Z,59.30
2023-04-25T10:19:32.557Z,59.46
2023-04-25T10:22:10.408Z,59.17
2023-04-25T10:24:41.867Z,59.04
2023-04-25T10:27:13.322Z,58.93
2023-04-25T10:29:45.664Z,58.86
2023-04-25T10:32:18.706Z,58.89
2023-04-25T10:34:50.660Z,59.22
2023-04-25T10:37:21.985Z,59.42
2023-04-25T10:39:56.050Z,59.37
2023-04-25T10:42:28.721Z,59.27
2023-04-25T10:45:05.226Z,59.19
2023-04-25T10:47:40.127Z,58.86
2023-04-25T10:50:12.652Z,59.08
2023-04-25T10:52:43.750Z,59.22
2023-04-25T10:55:15.099Z,59.52
2023-04-25T10:57:49.598Z,59.41
2023-04-25T11:00:48.272Z,59.21
2023-04-25T11:03:39.191Z,59.02
2023-04-25T11:06:15.257Z,58.30
2023-04-25T11:08:50.404Z,57.88
2023-04-25T11:11:22.221Z,57.88
2023-04-25T11:13:59.415Z,57.85
2023-04-25T11:16:34.247Z,57.69
2023-04-25T11:19:08.004Z,57.87
2023-04-25T11:21:39.882Z,58.07
2023-04-25T11:24:16.923Z,57.69
2023-04-25T11:29:49.432Z,57.47
2023-04-25T11:32:24.772Z,57.25
2023-04-25T11:41:23.936Z,57.01
2023-04-25T11:44:16.320Z,56.54
2023-04-25T11:46:57.444Z,56.50
2023-04-25T11:49:35.805Z,56.63
2023-04-25T11:52:34.013Z,56.74
2023-04-25T11:55:41.403Z,56.67
2023-04-25T11:58:17.236Z,56.49
2023-04-25T12:01:03.933Z,56.69
2023-04-25T12:03:44.009Z,56.49
2023-04-25T12:06:33.404Z,56.42
2023-04-25T12:13:05.777Z,57.02
2023-04-25T12:19:10.884Z,56.43
2023-04-25T12:21:59.029Z,56.39
2023-04-25T12:24:30.410Z,56.80
2023-04-25T12:27:03.438Z,57.02
2023-04-25T12:29:48.541Z,57.15
2023-04-25T12:32:20.745Z,57.24
2023-04-25T12:34:51.639Z,57.28
2023-04-25T12:37:22.664Z,57.52
2023-04-25T12:39:53.626Z,57.67
2023-04-25T12:42:24.581Z,57.63
2023-04-25T12:44:55.400Z,57.65
2023-04-25T12:47:28.530Z,57.65
2023-04-25T12:50:01.272Z,57.47
2023-04-25T12:52:32.631Z,57.64
2023-04-25T12:55:03.615Z,57.99
2023-04-25T12:57:34.726Z,58.22
2023-04-25T13:00:09.066Z,58.34
2023-04-25T13:02:40.250Z,58.38
2023-04-25T13:05:12.541Z,58.40
2023-04-25T13:07:43.858Z,58.37
2023-04-25T13:10:37.319Z,58.50
2023-04-25T13:13:08.877Z,58.52
2023-04-25T13:15:39.964Z,58.57
2023-04-25T13:27:49.921Z,58.88
2023-04-25T13:30:21.085Z,59.18
2023-04-25T13:32:59.685Z,59.36
2023-04-25T13:35:57.050Z,59.31
2023-04-25T13:38:30.912Z,59.42
2023-04-25T13:41:02.577Z,59.61
2023-04-25T13:43:35.547Z,59.56
2023-04-25T13:46:06.828Z,59.33
2023-04-25T13:48:37.808Z,59.45
2023-04-25T13:51:08.743Z,59.13
2023-04-25T13:53:40.140Z,59.22
2023-04-25T13:56:12.266Z,59.23
2023-04-25T13:58:44.953Z,59.23
2023-04-25T14:01:16.100Z,59.01
2023-04-25T14:03:47.982Z,58.55
2023-04-25T14:06:25.846Z,58.49
2023-04-25T14:08:56.742Z,58.49
2023-04-25T14:11:27.812Z,58.45
2023-04-25T14:14:01.345Z,58.33
2023-04-25T14:16:32.665Z,58.21
2023-04-25T14:19:05.008Z,58.04
2023-04-25T14:21:37.424Z,57.64
2023-04-25T14:24:11.965Z,57.40
2023-04-25T14:26:43.675Z,57.32
2023-04-25T14:29:14.687Z,57.08
2023-04-25T14:31:46.448Z,57.08
2023-04-25T14:34:17.360Z,57.18
2023-04-25T14:37:09.056Z,57.32
2023-04-25T14:39:41.617Z,57.27
2023-04-25T14:42:13.179Z,57.02
2023-04-25T14:44:44.034Z,56.86
2023-04-25T14:47:14.809Z,57.18
2023-04-25T14:49:47.806Z,56.71
2023-04-25T14:52:18.875Z,56.73
2023-04-25T14:54:49.680Z,56.82
2023-04-25T14:57:20.757Z,56.19
2023-04-25T14:59:51.754Z,56.06
2023-04-25T15:02:22.549Z,55.80
2023-04-25T15:04:54.114Z,55.98
2023-04-25T15:07:25.746Z,56.18
2023-04-25T15:09:58.965Z,56.19
2023-04-25T15:15:55.287Z,56.51
2023-04-25T15:18:26.122Z,56.23
2023-04-25T15:20:57.604Z,54.98
2023-04-25T15:23:29.951Z,54.71
2023-04-25T15:26:28.670Z,54.35
2023-04-25T15:29:13.420Z,54.55
2023-04-25T15:31:44.336Z,54.43
2023-04-25T15:34:15.930Z,54.53
2023-04-25T15:36:46.875Z,54.49
2023-04-25T15:39:17.765Z,54.64
2023-04-25T15:41:48.734Z,54.60
2023-04-25T15:44:19.578Z,54.63
2023-04-25T15:49:58.317Z,54.72
2023-04-25T15:52:35.545Z,54.67
2023-04-25T15:55:07.901Z,54.87
2023-04-25T15:57:38.850Z,54.93
2023-04-25T16:00:13.508Z,55.02
2023-04-25T16:02:45.268Z,55.12
2023-04-25T16:05:33.608Z,55.13
2023-04-25T16:08:04.784Z,55.23
2023-04-25T16:10:35.736Z,55.26
2023-04-25T16:16:09.867Z,55.51
2023-04-25T16:18:55.663Z,55.55
2023-04-25T16:21:40.324Z,55.57
2023-04-25T16:24:11.369Z,55.61
2023-04-25T16:26:43.245Z,55.54
2023-04-25T16:29:15.479Z,55.44
2023-04-25T16:31:48.082Z,55.50
2023-04-25T16:34:38.897Z,55.44
2023-04-25T16:37:11.395Z,55.39
2023-04-25T16:39:42.926Z,55.41
2023-04-25T16:42:13.865Z,55.37
2023-04-25T16:45:09.423Z,55.43
2023-04-25T16:47:40.436Z,55.51
2023-04-25T16:50:11.898Z,55.65
2023-04-25T16:52:48.776Z,55.70
2023-04-25T16:55:19.657Z,55.72
2023-04-25T16:58:03.511Z,55.55
2023-04-25T17:00:36.854Z,55.69
2023-04-25T17:03:34.689Z,55.89
2023-04-25T17:06:08.046Z,55.87
2023-04-25T17:08:39.135Z,56.09
2023-04-25T17:11:11.262Z,56.18
2023-04-25T17:13:43.737Z,56.13
2023-04-25T17:16:16.955Z,56.21
2023-04-25T17:18:49.970Z,56.19
2023-04-25T17:25:33.425Z,56.26
2023-04-25T17:28:04.636Z,56.20
2023-04-25T17:36:17.967Z,56.39
2023-04-25T17:39:07.690Z,56.44
2023-04-25T17:41:40.573Z,56.57
2023-04-25T17:44:16.090Z,56.57
2023-04-25T17:46:47.278Z,56.64
2023-04-25T17:49:20.597Z,56.66
2023-04-25T17:51:51.370Z,56.73
2023-04-25T17:54:22.868Z,56.87
2023-04-25T17:56:55.427Z,56.90
2023-04-25T17:59:34.497Z,56.99
2023-04-25T18:02:07.764Z,57.05
2023-04-25T18:04:43.364Z,57.16
2023-04-25T18:07:14.386Z,57.15
2023-04-25T18:09:46.028Z,57.27
2023-04-25T18:12:18.175Z,57.39
2023-04-25T18:14:49.411Z,57.47
2023-04-25T18:17:25.940Z,57.61
2023-04-25T18:19:57.795Z,57.72
2023-04-25T18:22:28.784Z,57.68
2023-04-25T18:25:09.324Z,57.66
2023-04-25T18:27:40.865Z,57.69
2023-04-25T18:30:12.811Z,57.84
2023-04-25T18:32:43.775Z,57.94
2023-04-25T18:35:14.690Z,57.94
2023-04-25T18:37:45.700Z,57.99
2023-04-25T18:40:19.534Z,58.11
2023-04-25T18:42:50.358Z,58.18
2023-04-25T18:48:30.645Z,58.02
2023-04-25T18:51:01.968Z,58.11
2023-04-25T18:53:33.578Z,58.14
2023-04-25T18:56:19.351Z,58.24
2023-04-25T18:58:53.656Z,58.30
2023-04-25T19:01:25.850Z,58.35
2023-04-25T19:03:57.561Z,58.34
2023-04-25T19:06:29.782Z,58.33
2023-04-25T19:09:02.936Z,58.38
2023-04-25T19:11:33.824Z,58.25
2023-04-25T19:14:04.839Z,58.38
2023-04-25T19:16:39.244Z,58.32
2023-04-25T19:19:18.804Z,58.22
2023-04-25T19:21:50.880Z,58.28
2023-04-25T19:24:26.552Z,58.30
2023-04-25T19:27:00.385Z,58.33
2023-04-25T19:29:32.798Z,58.14
2023-04-25T19:32:06.127Z,58.27
2023-04-25T19:34:39.490Z,58.13
2023-04-25T19:37:11.298Z,58.09
2023-04-25T19:39:42.408Z,58.02
2023-04-25T19:42:16.601Z,57.97
2023-04-25T19:44:48.602Z,58.13
2023-04-25T19:47:19.412Z,58.13
2023-04-25T19:49:50.429Z,58.24
2023-04-25T19:52:21.341Z,58.26
2023-04-25T19:55:02.608Z,58.23
2023-04-25T19:57:38.107Z,58.31
2023-04-25T20:00:12.199Z,58.30
2023-04-25T20:02:46.587Z,58.31
2023-04-25T20:05:18.032Z,58.30
2023-04-25T20:07:53.461Z,58.30
2023-04-25T20:10:26.230Z,58.23
2023-04-25T20:13:03.791Z,58.54
2023-04-25T20:15:36.566Z,58.40
2023-04-25T20:18:28.943Z,58.44
2023-04-25T20:21:16.192Z,58.48
2023-04-25T20:23:52.090Z,58.47
2023-04-25T20:26:23.243Z,58.45
2023-04-25T20:31:58.128Z,58.65
2023-04-25T20:34:34.082Z,58.61
2023-04-25T20:37:05.540Z,58.71
2023-04-25T20:39:40.368Z,58.62
2023-04-25T20:42:12.399Z,58.73
2023-04-25T20:44:43.340Z,58.75
2023-04-25T20:47:16.827Z,58.68
2023-04-25T20:49:47.997Z,58.94
2023-04-25T20:52:21.345Z,58.92
2023-04-25T20:54:54.420Z,58.91
2023-04-25T20:57:27.756Z,59.00
2023-04-25T21:00:14.116Z,59.00
2023-04-25T21:02:46.277Z,58.96
2023-04-25T21:05:17.430Z,58.95
2023-04-25T21:07:54.607Z,59.03
2023-04-25T21:10:26.988Z,59.09
2023-04-25T21:13:16.503Z,59.10
2023-04-25T21:15:47.286Z,59.18
2023-04-25T21:18:18.286Z,59.13
2023-04-25T21:20:49.128Z,59.25
2023-04-25T21:23:20.182Z,59.33
2023-04-25T21:25:53.526Z,59.36
2023-04-25T21:28:24.758Z,59.32
2023-04-25T21:30:55.736Z,59.39
2023-04-25T21:33:26.632Z,59.39
2023-04-25T21:35:57.585Z,59.47
2023-04-25T21:38:28.507Z,59.55
2023-04-25T21:40:59.198Z,59.54
2023-04-25T21:43:30.006Z,59.49
2023-04-25T21:48:34.661Z,59.55
2023-04-25T21:51:05.853Z,59.45
2023-04-25T21:53:36.758Z,59.49
2023-04-25T21:56:07.868Z,59.62
2023-04-25T21:58:38.618Z,59.63
2023-04-25T22:01:10.080Z,59.52
2023-04-25T22:03:41.180Z,59.59
2023-04-25T22:06:12.120Z,59.53
2023-04-25T22:08:43.904Z,59.52
2023-04-25T22:11:14.923Z,59.68
2023-04-25T22:13:47.260Z,59.62
2023-04-25T22:16:18.123Z,59.76
2023-04-25T22:18:49.645Z,59.78
2023-04-25T22:21:20.751Z,59.82
2023-04-25T22:23:52.354Z,59.86
2023-04-25T22:26:23.280Z,59.77
2023-04-25T22:28:54.395Z,59.80
2023-04-25T22:31:25.500Z,59.84
2023-04-25T22:33:56.424Z,59.82
2023-04-25T22:36:27.744Z,59.89
2023-04-25T22:38:58.741Z,59.84
2023-04-25T22:41:29.846Z,59.98
2023-04-25T22:44:00.766Z,59.94
2023-04-25T22:46:31.684Z,59.99
2023-04-25T22:49:02.756Z,60.01
2023-04-25T22:51:33.672Z,60.08
2023-04-25T22:54:05.648Z,60.08
2023-04-25T22:56:36.765Z,60.13
2023-04-25T22:59:07.753Z,60.01
2023-04-25T23:01:38.480Z,60.22
2023-04-25T23:04:10.280Z,60.08
2023-04-25T23:06:41.733Z,60.01
2023-04-25T23:09:13.907Z,60.20
2023-04-25T23:11:44.694Z,60.26
2023-04-25T23:14:15.641Z,60.30
2023-04-25T23:16:46.766Z,60.44
2023-04-25T23:19:17.959Z,60.36
2023-04-25T23:21:49.001Z,60.39
2023-04-25T23:24:19.896Z,60.34
2023-04-25T23:26:50.846Z,60.45
2023-04-25T23:29:21.556Z,60.69
2023-04-25T23:31:52.363Z,60.55
2023-04-25T23:34:23.172Z,60.70
2023-04-25T23:36:54.165Z,60.60
2023-04-25T23:39:24.951Z,60.69
2023-04-25T23:41:55.916Z,60.90
2023-04-25T23:44:27.075Z,60.73
2023-04-25T23:46:57.815Z,60.83
2023-04-25T23:49:28.565Z,60.92
2023-04-25T23:52:01.620Z,60.90
2023-04-25T23:54:32.498Z,61.02
2023-04-25T23:57:04.869Z,61.08
2023-04-25T23:59:35.750Z,61.07
